Time;durP1;ratioP1;P1;durP2;ratioP2;P2;SDS_P1;SDS_P2;PMS_P1;PMS_P2;Temp;Humidity;BMP_temperature;BMP_pressure;BME280_temperature;BME280_humidity;BME280_pressure;Samples;Min_cycle;Max_cycle;Signal;HPM_P1;HPM_P2
2020/12/22 00:01:51;;;;;;;37.45;20.88;;;8.60;58.90;;;;;;5053396;28;20021;-72
2020/12/22 00:04:17;;;;;;;36.78;19.55;;;8.60;58.90;;;;;;5053143;28;20505;-72
2020/12/22 00:06:42;;;;;;;28.13;16.20;;;8.60;59.00;;;;;;5053422;28;20025;-73
2020/12/22 00:09:08;;;;;;;35.25;18.95;;;8.60;59.00;;;;;;5053369;28;20025;-73
2020/12/22 00:11:34;;;;;;;32.65;17.83;;;8.60;59.00;;;;;;5053065;28;20025;-72
2020/12/22 00:13:59;;;;;;;29.10;16.55;;;8.60;59.00;;;;;;5051745;28;20406;-73
2020/12/22 00:16:33;;;;;;;39.13;20.85;;;8.60;59.60;;;;;;5052928;28;20029;-72
2020/12/22 00:18:59;;;;;;;42.75;20.35;;;8.60;59.10;;;;;;5051822;28;20033;-72
2020/12/22 00:21:24;;;;;;;34.92;17.65;;;8.60;59.00;;;;;;5052793;28;20051;-72
2020/12/22 00:23:50;;;;;;;36.88;18.85;;;8.60;59.00;;;;;;5052805;28;20028;-72
2020/12/22 00:26:17;;;;;;;37.97;19.98;;;8.60;59.00;;;;;;5052947;28;20120;-72
2020/12/22 00:28:43;;;;;;;36.50;19.98;;;8.60;59.10;;;;;;5053032;28;20032;-72
2020/12/22 00:31:08;;;;;;;36.33;18.98;;;8.60;59.10;;;;;;5052821;28;20036;-72
2020/12/22 00:33:34;;;;;;;36.85;20.15;;;8.60;59.10;;;;;;5051266;28;20035;-72
2020/12/22 00:36:00;;;;;;;40.53;21.05;;;8.60;59.20;;;;;;5052845;28;20104;-72
2020/12/22 00:38:26;;;;;;;34.50;19.58;;;8.60;59.10;;;;;;5052646;28;20107;-72
2020/12/22 00:40:51;;;;;;;42.85;22.52;;;8.60;59.10;;;;;;5052727;28;20071;-72
2020/12/22 00:43:17;;;;;;;42.97;23.05;;;8.60;59.20;;;;;;5052488;28;20108;-73
2020/12/22 00:45:43;;;;;;;40.30;20.73;;;8.60;59.30;;;;;;5052812;28;20098;-73
2020/12/22 00:48:09;;;;;;;45.92;23.40;;;8.60;59.30;;;;;;5052714;28;20466;-72
2020/12/22 00:50:35;;;;;;;44.03;22.55;;;8.50;59.80;;;;;;5052525;28;20069;-72
2020/12/22 00:53:01;;;;;;;41.55;22.77;;;8.60;59.30;;;;;;5052324;28;20029;-72
2020/12/22 00:55:26;;;;;;;40.10;21.77;;;8.50;59.30;;;;;;5052606;28;20514;-72
2020/12/22 00:57:52;;;;;;;40.78;20.75;;;8.50;59.30;;;;;;5051236;28;20029;-72
2020/12/22 01:00:18;;;;;;;40.15;19.73;;;8.50;59.40;;;;;;5052424;28;20021;-72
2020/12/22 01:02:44;;;;;;;43.92;22.40;;;8.50;59.40;;;;;;5050916;28;20391;-72
2020/12/22 01:05:09;;;;;;;45.10;21.73;;;8.50;59.40;;;;;;5052471;28;20017;-72
2020/12/22 01:07:35;;;;;;;40.10;21.30;;;8.50;59.40;;;;;;5051072;28;20056;-72
2020/12/22 01:10:01;;;;;;;43.15;22.48;;;8.50;59.40;;;;;;5052469;28;20024;-72
2020/12/22 01:12:27;;;;;;;44.58;22.52;;;8.50;59.40;;;;;;5051876;28;20029;-72
2020/12/22 01:14:53;;;;;;;38.40;20.67;;;8.50;59.40;;;;;;5052415;28;20029;-72
2020/12/22 01:17:19;;;;;;;40.55;21.88;;;8.50;59.50;;;;;;5039601;28;20033;-72
2020/12/22 01:19:45;;;;;;;45.65;24.40;;;8.50;59.50;;;;;;5050900;28;20033;-72
2020/12/22 01:22:11;;;;;;;42.10;22.63;;;8.50;59.50;;;;;;5051843;28;20024;-72
2020/12/22 01:24:37;;;;;;;45.40;23.20;;;8.50;59.50;;;;;;5052118;28;20134;-72
2020/12/22 01:27:02;;;;;;;46.20;24.00;;;8.50;59.50;;;;;;5052631;28;20025;-72
2020/12/22 01:29:28;;;;;;;42.63;22.27;;;8.50;59.60;;;;;;5052233;28;20052;-72
2020/12/22 01:31:54;;;;;;;46.22;23.70;;;8.50;59.60;;;;;;5051656;28;20075;-73
2020/12/22 01:34:20;;;;;;;45.42;23.00;;;8.50;59.60;;;;;;5053153;28;20421;-72
2020/12/22 01:36:46;;;;;;;41.03;22.65;;;8.50;59.60;;;;;;5036325;28;20072;-72
2020/12/22 01:39:12;;;;;;;40.88;21.95;;;8.50;59.70;;;;;;5036179;28;20029;-72
2020/12/22 01:41:38;;;;;;;47.00;23.88;;;8.50;59.70;;;;;;5042735;28;20025;-72
2020/12/22 01:44:12;;;;;;;40.08;21.40;;;8.50;59.70;;;;;;5055789;28;20052;-72
2020/12/22 01:46:50;;;;;;;45.38;23.73;;;8.40;59.70;;;;;;5056138;28;20017;-72
2020/12/22 01:49:25;;;;;;;41.08;21.92;;;8.40;59.80;;;;;;5054513;28;20056;-72
2020/12/22 01:51:53;;;;;;;45.30;23.08;;;8.40;59.90;;;;;;5054456;28;20025;-72
2020/12/22 01:54:20;;;;;;;40.50;20.48;;;8.40;60.00;;;;;;5055948;28;20470;-72
2020/12/22 01:56:46;;;;;;;40.03;22.13;;;8.40;60.00;;;;;;5054616;28;20108;-72
2020/12/22 01:59:13;;;;;;;39.42;21.10;;;8.50;60.10;;;;;;5055508;28;20054;-72
2020/12/22 02:01:39;;;;;;;42.70;22.00;;;8.50;60.10;;;;;;5055724;28;20438;-72
2020/12/22 02:04:06;;;;;;;39.78;20.73;;;8.40;60.10;;;;;;5055566;28;20071;-73
2020/12/22 02:06:33;;;;;;;44.78;20.27;;;8.50;60.20;;;;;;5054096;28;20398;-72
2020/12/22 02:09:00;;;;;;;45.92;22.38;;;8.40;60.30;;;;;;5055441;28;20037;-72
2020/12/22 02:11:27;;;;;;;43.55;22.42;;;8.40;60.30;;;;;;5055599;28;20040;-72
2020/12/22 02:13:54;;;;;;;46.95;24.83;;;8.40;60.40;;;;;;5055396;28;20117;-72
2020/12/22 02:16:20;;;;;;;50.40;24.17;;;8.40;60.50;;;;;;5055414;28;20351;-72
2020/12/22 02:18:47;;;;;;;44.65;23.55;;;8.40;60.70;;;;;;5055509;28;20021;-72
2020/12/22 02:21:13;;;;;;;47.75;25.23;;;8.40;60.90;;;;;;5055326;28;20028;-72
2020/12/22 02:23:39;;;;;;;48.85;25.20;;;8.40;61.00;;;;;;5055142;28;20032;-72
2020/12/22 02:26:05;;;;;;;53.30;25.48;;;8.40;61.00;;;;;;5055225;28;20045;-72
2020/12/22 02:28:32;;;;;;;48.05;22.17;;;8.30;61.20;;;;;;5055265;28;20489;-72
2020/12/22 02:30:59;;;;;;;44.42;23.10;;;8.30;61.30;;;;;;5055196;28;20040;-72
2020/12/22 02:33:25;;;;;;;50.45;24.45;;;8.30;61.30;;;;;;5053681;28;20394;-72
2020/12/22 02:35:51;;;;;;;42.58;22.85;;;8.30;61.40;;;;;;5050411;28;20029;-72
2020/12/22 02:38:17;;;;;;;47.85;24.05;;;8.30;61.50;;;;;;5038737;28;20033;-72
2020/12/22 02:40:44;;;;;;;43.22;22.70;;;8.30;61.70;;;;;;5054819;28;20024;-72
2020/12/22 02:43:11;;;;;;;47.28;23.95;;;8.30;61.60;;;;;;5054366;28;20029;-72
2020/12/22 02:45:38;;;;;;;45.60;23.45;;;8.20;61.70;;;;;;5054757;28;20478;-72
2020/12/22 02:48:04;;;;;;;45.60;22.38;;;8.30;61.80;;;;;;5050115;28;20112;-72
2020/12/22 02:50:30;;;;;;;45.42;22.92;;;8.30;61.80;;;;;;5046310;28;20100;-72
2020/12/22 02:52:56;;;;;;;44.15;22.77;;;8.30;61.90;;;;;;5054647;28;20033;-73
2020/12/22 02:55:22;;;;;;;44.92;22.67;;;8.20;61.90;;;;;;5054831;28;20029;-72
2020/12/22 02:57:48;;;;;;;39.72;21.23;;;8.20;62.00;;;;;;5053439;28;20033;-72
2020/12/22 03:00:14;;;;;;;41.65;20.80;;;8.20;62.00;;;;;;5054777;28;20035;-72
2020/12/22 03:02:39;;;;;;;42.38;19.88;;;8.20;62.00;;;;;;5054554;28;20067;-72
2020/12/22 03:05:05;;;;;;;46.33;21.40;;;8.20;62.00;;;;;;5054954;28;20025;-72
2020/12/22 03:07:31;;;;;;;39.47;19.58;;;8.20;62.00;;;;;;5054633;28;20382;-72
2020/12/22 03:09:56;;;;;;;37.22;20.10;;;8.30;62.10;;;;;;5054618;28;20359;-72
2020/12/22 03:12:22;;;;;;;39.30;21.20;;;8.20;62.20;;;;;;5054465;28;20040;-72
2020/12/22 03:14:48;;;;;;;42.38;21.60;;;8.30;62.30;;;;;;5054473;28;20028;-72
2020/12/22 03:17:14;;;;;;;42.33;21.20;;;8.30;62.40;;;;;;5054398;28;20475;-72
2020/12/22 03:19:40;;;;;;;37.67;19.02;;;8.30;62.30;;;;;;5054310;28;20021;-72
2020/12/22 03:22:07;;;;;;;35.80;18.88;;;8.30;62.40;;;;;;5054321;28;20467;-72
2020/12/22 03:24:33;;;;;;;36.72;19.40;;;8.40;62.40;;;;;;5054137;28;20052;-73
2020/12/22 03:26:59;;;;;;;37.35;18.73;;;8.40;62.40;;;;;;5054224;28;20029;-72
2020/12/22 03:29:24;;;;;;;44.80;20.65;;;8.40;62.50;;;;;;5054235;28;20036;-72
2020/12/22 03:31:50;;;;;;;36.47;19.00;;;8.40;62.70;;;;;;5052861;28;20113;-72
2020/12/22 03:34:16;;;;;;;40.65;20.15;;;8.40;62.60;;;;;;5053974;28;20021;-73
2020/12/22 03:36:43;;;;;;;36.47;19.77;;;8.40;62.60;;;;;;5054001;28;20059;-72
2020/12/22 03:39:08;;;;;;;37.47;18.58;;;8.40;62.40;;;;;;5053973;28;20033;-72
2020/12/22 03:41:34;;;;;;;37.38;17.85;;;8.40;62.30;;;;;;5052553;28;20540;-72
2020/12/22 03:44:00;;;;;;;37.25;18.90;;;8.40;62.40;;;;;;5053832;28;20017;-72
2020/12/22 03:46:26;;;;;;;35.38;17.95;;;8.30;62.30;;;;;;5053588;28;20021;-72
2020/12/22 03:48:53;;;;;;;33.95;17.83;;;8.30;62.60;;;;;;5053815;28;20043;-72
2020/12/22 03:51:18;;;;;;;32.45;16.85;;;8.40;62.80;;;;;;5053752;28;20028;-72
2020/12/22 03:53:44;;;;;;;32.30;17.45;;;8.30;62.70;;;;;;5052220;28;20455;-72
2020/12/22 03:56:10;;;;;;;30.00;16.17;;;8.30;62.70;;;;;;5052974;28;20074;-72
2020/12/22 03:58:35;;;;;;;28.55;14.82;;;8.30;62.70;;;;;;5053652;28;20051;-72
2020/12/22 04:01:01;;;;;;;27.80;14.80;;;8.40;62.80;;;;;;5052250;28;20036;-73
2020/12/22 04:03:27;;;;;;;30.00;16.33;;;8.30;62.70;;;;;;5052209;28;20112;-72
2020/12/22 04:05:53;;;;;;;28.90;14.90;;;8.40;62.80;;;;;;5053413;28;20028;-72
2020/12/22 04:08:19;;;;;;;29.45;15.80;;;8.40;62.80;;;;;;5052196;28;20028;-72
2020/12/22 04:10:45;;;;;;;27.33;14.55;;;8.40;62.80;;;;;;5052101;28;20386;-72
2020/12/22 04:13:11;;;;;;;28.55;13.57;;;8.40;62.80;;;;;;5053282;28;20021;-72
2020/12/22 04:15:37;;;;;;;28.90;14.15;;;8.40;62.90;;;;;;5053306;28;20390;-72
2020/12/22 04:18:02;;;;;;;32.25;16.50;;;8.40;62.90;;;;;;5051955;28;20021;-73
2020/12/22 04:20:28;;;;;;;32.58;16.17;;;8.40;62.90;;;;;;5053174;28;20108;-72
2020/12/22 04:22:54;;;;;;;21.23;13.07;;;8.40;62.90;;;;;;5053089;28;20025;-72
2020/12/22 04:25:20;;;;;;;30.08;15.18;;;8.50;62.90;;;;;;5052900;28;20123;-72
2020/12/22 04:27:46;;;;;;;23.38;13.65;;;8.50;63.00;;;;;;5051750;28;20354;-72
2020/12/22 04:30:11;;;;;;;23.80;12.23;;;8.50;63.00;;;;;;5051611;28;20075;-72
2020/12/22 04:32:37;;;;;;;20.83;12.32;;;8.50;62.90;;;;;;5052931;28;20025;-72
2020/12/22 04:35:04;;;;;;;20.98;11.95;;;8.50;63.00;;;;;;5052727;28;20099;-72
2020/12/22 04:37:30;;;;;;;32.50;14.27;;;8.50;63.10;;;;;;5052784;28;20086;-72
2020/12/22 04:39:55;;;;;;;22.73;12.80;;;8.50;63.00;;;;;;5052839;28;20021;-72
2020/12/22 04:42:21;;;;;;;24.02;13.30;;;8.60;63.10;;;;;;5052654;28;20480;-72
2020/12/22 04:44:49;;;;;;;25.65;14.27;;;8.60;63.20;;;;;;5052347;28;20479;-72
2020/12/22 04:47:17;;;;;;;25.10;15.15;;;8.60;63.30;;;;;;5051991;28;20025;-72
2020/12/22 04:49:44;;;;;;;23.60;12.93;;;8.60;63.40;;;;;;5052226;28;20071;-72
2020/12/22 04:52:12;;;;;;;19.30;10.52;;;8.60;63.40;;;;;;5054006;28;20025;-72
2020/12/22 04:54:38;;;;;;;16.48;9.52;;;8.60;63.20;;;;;;5052184;28;20632;-72
2020/12/22 04:57:04;;;;;;;19.55;11.32;;;8.60;63.20;;;;;;5052086;28;20040;-73
2020/12/22 04:59:31;;;;;;;20.17;10.30;;;8.60;63.40;;;;;;5053209;28;20025;-72
2020/12/22 05:01:58;;;;;;;22.27;11.32;;;8.60;63.40;;;;;;5053277;28;20028;-72
2020/12/22 05:04:34;;;;;;;18.23;9.75;;;8.70;63.50;;;;;;5053600;28;20466;-72
2020/12/22 05:07:00;;;;;;;25.25;12.20;;;8.70;63.40;;;;;;5053471;28;20017;-72
2020/12/22 05:09:26;;;;;;;21.92;11.30;;;8.70;63.40;;;;;;5053225;28;20021;-72
2020/12/22 05:11:53;;;;;;;18.73;10.68;;;8.70;63.40;;;;;;5051986;28;20031;-72
2020/12/22 05:14:18;;;;;;;17.30;9.68;;;8.70;63.50;;;;;;5053506;28;20029;-72
2020/12/22 05:16:44;;;;;;;19.83;10.73;;;8.70;63.40;;;;;;5053714;28;20055;-73
2020/12/22 05:19:10;;;;;;;19.85;10.73;;;8.70;63.50;;;;;;5053083;28;20446;-72
2020/12/22 05:21:37;;;;;;;16.40;9.13;;;8.70;63.30;;;;;;5053351;28;20048;-72
2020/12/22 05:24:07;;;;;;;14.80;8.25;;;8.70;63.20;;;;;;5053120;28;20039;-73
2020/12/22 05:26:34;;;;;;;14.40;8.25;;;8.70;63.20;;;;;;5053057;28;20029;-72
2020/12/22 05:29:13;;;;;;;15.75;9.07;;;8.70;63.20;;;;;;5053026;28;20023;-72
2020/12/22 05:31:46;;;;;;;16.15;9.65;;;8.70;63.20;;;;;;5052902;28;20474;-73
2020/12/22 05:34:14;;;;;;;11.90;7.50;;;8.70;63.10;;;;;;5052908;28;20103;-72
2020/12/22 05:36:42;;;;;;;16.83;9.05;;;8.70;63.10;;;;;;5053276;28;20475;-72
2020/12/22 05:39:12;;;;;;;12.23;6.93;;;8.70;63.00;;;;;;5052869;28;20029;-72
2020/12/22 05:41:39;;;;;;;14.05;8.35;;;8.70;63.10;;;;;;5053139;28;20460;-72
2020/12/22 05:44:05;;;;;;;15.73;8.57;;;8.70;63.30;;;;;;5053043;28;20096;-72
2020/12/22 05:46:37;;;;;;;13.52;7.70;;;8.70;63.30;;;;;;5052902;28;20028;-72
2020/12/22 05:49:08;;;;;;;18.38;9.35;;;8.70;63.40;;;;;;5051832;28;20375;-72
2020/12/22 05:51:34;;;;;;;15.25;8.05;;;8.70;63.50;;;;;;5052885;28;20429;-73
2020/12/22 05:54:05;;;;;;;14.88;8.30;;;8.70;63.50;;;;;;5052834;28;20025;-72
2020/12/22 05:56:32;;;;;;;15.60;8.05;;;8.70;63.70;;;;;;5051551;28;20074;-72
2020/12/22 05:58:58;;;;;;;15.20;7.28;;;8.70;63.70;;;;;;5053044;28;20100;-72
2020/12/22 06:01:33;;;;;;;17.73;8.88;;;8.70;63.70;;;;;;5052679;28;20109;-72
2020/12/22 06:04:04;;;;;;;18.83;9.25;;;8.70;63.80;;;;;;5052757;28;20041;-72
2020/12/22 06:06:33;;;;;;;17.10;10.02;;;8.70;63.70;;;;;;5052715;28;20029;-72
2020/12/22 06:08:59;;;;;;;17.85;9.82;;;8.70;63.70;;;;;;5052978;28;20070;-72
2020/12/22 06:11:27;;;;;;;16.95;8.75;;;8.70;63.70;;;;;;5052736;28;20033;-72
2020/12/22 06:13:53;;;;;;;15.73;8.32;;;8.70;63.80;;;;;;5051477;28;20029;-73
2020/12/22 06:16:21;;;;;;;17.27;9.20;;;8.80;63.80;;;;;;5052895;28;20029;-72
2020/12/22 06:18:51;;;;;;;13.23;7.82;;;8.80;63.90;;;;;;5055546;28;20151;-72
2020/12/22 06:21:21;;;;;;;16.55;8.60;;;8.80;63.90;;;;;;5056557;28;20017;-72
2020/12/22 06:23:48;;;;;;;20.00;9.57;;;8.80;63.90;;;;;;5056516;28;20021;-72
2020/12/22 06:26:17;;;;;;;19.08;10.20;;;8.80;64.00;;;;;;5056335;28;20045;-72
2020/12/22 06:28:43;;;;;;;14.90;8.02;;;8.80;63.90;;;;;;5056433;28;20017;-72
2020/12/22 06:31:37;;;;;;;18.45;8.90;;;8.80;63.80;;;;;;5056417;28;20554;-72
2020/12/22 06:34:23;;;;;;;23.30;10.40;;;8.80;63.70;;;;;;5070199;28;20033;-72
2020/12/22 06:37:00;;;;;;;18.77;9.85;;;8.80;63.70;;;;;;5056059;28;20342;-72
2020/12/22 06:39:46;;;;;;;20.33;10.73;;;8.80;63.80;;;;;;5055937;28;20036;-72
2020/12/22 06:42:30;;;;;;;14.98;8.32;;;8.80;63.90;;;;;;5055770;28;20398;-72
2020/12/22 06:45:21;;;;;;;13.00;7.40;;;8.80;63.80;;;;;;5055805;28;20021;-72
2020/12/22 06:47:47;;;;;;;16.48;8.93;;;8.80;63.90;;;;;;5056061;28;20434;-72
2020/12/22 06:50:37;;;;;;;15.55;8.15;;;8.80;63.90;;;;;;5055730;28;20063;-72
2020/12/22 06:53:04;;;;;;;12.85;7.85;;;8.80;63.90;;;;;;5054418;28;20028;-73
2020/12/22 06:55:50;;;;;;;11.68;8.10;;;8.90;63.90;;;;;;5054270;28;20497;-72
2020/12/22 06:58:47;;;;;;;15.32;8.48;;;8.90;64.00;;;;;;5055654;28;20036;-72
2020/12/22 07:01:29;;;;;;;15.93;7.35;;;8.90;64.00;;;;;;5055451;28;20421;-72
2020/12/22 07:04:11;;;;;;;14.98;8.85;;;8.90;63.80;;;;;;5054193;28;20132;-72
2020/12/22 07:07:04;;;;;;;16.48;10.18;;;8.90;63.70;;;;;;5054214;28;20180;-73
2020/12/22 07:09:34;;;;;;;16.65;8.50;;;8.90;63.70;;;;;;5055627;28;20025;-72
2020/12/22 07:12:09;;;;;;;15.98;10.13;;;8.80;63.50;;;;;;5055553;28;20032;-72
2020/12/22 07:14:55;;;;;;;18.33;9.43;;;8.80;63.60;;;;;;5055269;28;20025;-72
2020/12/22 07:17:21;;;;;;;14.63;9.48;;;8.80;63.70;;;;;;5070391;28;20064;-72
2020/12/22 07:19:54;;;;;;;18.02;9.02;;;8.80;63.70;;;;;;5055193;28;20458;-72
2020/12/22 07:22:20;;;;;;;13.88;8.85;;;8.90;64.00;;;;;;5055354;28;20037;-72
2020/12/22 07:24:45;;;;;;;14.27;8.90;;;8.90;64.00;;;;;;5055024;28;20167;-72
2020/12/22 07:27:12;;;;;;;12.82;8.57;;;8.90;63.90;;;;;;5055021;28;20021;-72
2020/12/22 07:29:39;;;;;;;14.90;9.45;;;8.90;63.70;;;;;;5053918;28;20052;-72
2020/12/22 07:32:06;;;;;;;18.92;10.45;;;8.90;63.80;;;;;;5054675;28;20022;-72
2020/12/22 07:34:32;;;;;;;14.10;8.75;;;8.90;63.90;;;;;;5054625;28;20040;-72
2020/12/22 07:37:09;;;;;;;20.90;11.30;;;8.90;64.00;;;;;;5055060;28;20094;-72
2020/12/22 07:39:35;;;;;;;18.40;10.80;;;9.00;64.10;;;;;;5054917;28;20021;-72
2020/12/22 07:42:18;;;;;;;17.35;10.23;;;9.00;64.10;;;;;;5054664;28;20025;-72
2020/12/22 07:44:46;;;;;;;15.32;9.38;;;9.00;64.10;;;;;;5054656;28;20017;-72
2020/12/22 07:47:13;;;;;;;34.17;23.52;;;9.00;64.00;;;;;;5054584;28;20021;-73
2020/12/22 07:49:39;;;;;;;22.25;15.55;;;9.10;64.00;;;;;;5054818;28;20103;-72
2020/12/22 07:52:05;;;;;;;17.08;10.73;;;9.10;64.00;;;;;;5054535;28;20082;-73
2020/12/22 07:54:31;;;;;;;14.60;8.48;;;9.10;64.00;;;;;;5054501;28;20024;-72
2020/12/22 07:56:59;;;;;;;12.40;8.02;;;9.20;64.00;;;;;;5054608;28;20074;-72
2020/12/22 07:59:25;;;;;;;17.27;7.93;;;9.20;63.90;;;;;;5054351;28;20112;-73
2020/12/22 08:01:52;;;;;;;14.50;8.73;;;9.20;63.80;;;;;;5054148;28;20020;-73
2020/12/22 08:04:25;;;;;;;13.20;8.20;;;9.20;63.60;;;;;;5052954;28;20025;-72
2020/12/22 08:07:02;;;;;;;14.33;9.80;;;9.20;63.40;;;;;;5052945;28;20603;-72
2020/12/22 08:09:39;;;;;;;13.25;9.05;;;9.30;63.50;;;;;;5054541;28;20029;-72
2020/12/22 08:12:07;;;;;;;11.63;8.10;;;9.30;63.60;;;;;;5054084;28;20029;-72
2020/12/22 08:14:39;;;;;;;13.88;8.38;;;9.30;63.60;;;;;;5054413;28;20394;-73
2020/12/22 08:17:18;;;;;;;13.60;8.68;;;9.30;63.50;;;;;;5054376;28;20067;-73
2020/12/22 08:19:45;;;;;;;14.98;8.50;;;9.40;63.50;;;;;;5054258;28;20024;-73
2020/12/22 08:22:14;;;;;;;13.73;8.10;;;9.40;63.50;;;;;;5053867;28;20032;-73
2020/12/22 08:24:40;;;;;;;14.27;8.10;;;9.40;63.60;;;;;;5053744;28;20048;-72
2020/12/22 08:27:09;;;;;;;15.63;7.47;;;9.40;63.50;;;;;;5053958;28;20017;-72
2020/12/22 08:29:38;;;;;;;12.02;7.38;;;9.40;63.10;;;;;;5053879;28;20025;-73
2020/12/22 08:32:04;;;;;;;11.40;7.63;;;9.40;62.90;;;;;;5053684;28;20029;-73
2020/12/22 08:34:30;;;;;;;11.38;7.22;;;9.50;62.70;;;;;;5053595;28;20083;-73
2020/12/22 08:36:56;;;;;;;10.93;6.88;;;9.50;62.90;;;;;;5053635;28;20084;-73
2020/12/22 08:39:25;;;;;;;10.75;7.05;;;9.50;63.10;;;;;;5053353;28;20112;-73
2020/12/22 08:41:57;;;;;;;10.27;6.82;;;9.60;62.90;;;;;;5053016;28;20028;-73
2020/12/22 08:44:24;;;;;;;11.05;7.35;;;9.70;63.00;;;;;;5053845;28;20020;-73
2020/12/22 08:46:51;;;;;;;10.00;6.63;;;9.70;62.80;;;;;;5052223;28;20031;-73
2020/12/22 08:49:24;;;;;;;10.45;7.38;;;9.80;62.70;;;;;;5053396;28;20048;-73
2020/12/22 08:51:51;;;;;;;10.93;6.97;;;9.90;62.60;;;;;;5052172;28;20425;-73
2020/12/22 08:54:16;;;;;;;10.38;6.90;;;9.90;62.70;;;;;;5052054;28;20119;-73
2020/12/22 08:56:42;;;;;;;10.05;6.80;;;10.00;62.40;;;;;;5053227;28;20410;-73
2020/12/22 08:59:09;;;;;;;9.65;6.35;;;10.10;62.30;;;;;;5053223;28;20044;-73
2020/12/22 09:01:49;;;;;;;8.13;5.90;;;10.20;62.20;;;;;;5051955;28;20033;-73
2020/12/22 09:04:15;;;;;;;13.55;6.57;;;10.20;61.70;;;;;;5051864;28;20033;-73
2020/12/22 09:06:46;;;;;;;11.50;6.93;;;10.30;61.80;;;;;;5051934;28;20520;-73
2020/12/22 09:09:32;;;;;;;14.10;7.80;;;10.40;61.80;;;;;;5053527;28;20486;-73
2020/12/22 09:12:11;;;;;;;10.93;7.43;;;10.40;61.30;;;;;;5051892;28;20029;-73
2020/12/22 09:14:39;;;;;;;10.82;7.22;;;10.50;60.70;;;;;;5053661;28;20367;-73
2020/12/22 09:17:05;;;;;;;10.23;6.43;;;10.50;60.70;;;;;;5051689;28;20025;-73
2020/12/22 09:19:44;;;;;;;14.10;7.05;;;10.50;60.70;;;;;;5051824;28;20098;-73
2020/12/22 09:22:11;;;;;;;11.10;7.25;;;10.50;60.50;;;;;;5053285;28;20025;-73
2020/12/22 09:24:37;;;;;;;11.13;6.90;;;10.50;60.40;;;;;;5052782;28;20036;-73
2020/12/22 09:27:07;;;;;;;12.20;7.40;;;10.50;60.50;;;;;;5051813;28;20390;-73
2020/12/22 09:29:36;;;;;;;11.23;7.35;;;10.60;60.50;;;;;;5053081;28;20070;-73
2020/12/22 09:32:02;;;;;;;13.35;7.45;;;10.60;60.60;;;;;;5052922;28;20090;-73
2020/12/22 09:34:31;;;;;;;12.45;6.63;;;10.60;60.60;;;;;;5053071;28;20124;-73
2020/12/22 09:36:59;;;;;;;13.77;7.45;;;10.60;60.60;;;;;;5051601;28;20091;-73
2020/12/22 09:39:26;;;;;;;14.65;7.18;;;10.60;60.40;;;;;;5052865;28;20029;-73
2020/12/22 09:41:53;;;;;;;15.35;8.57;;;10.70;60.40;;;;;;5051641;28;20143;-73
2020/12/22 09:44:19;;;;;;;19.42;8.98;;;10.70;60.30;;;;;;5052853;28;20028;-73
2020/12/22 09:46:49;;;;;;;18.73;9.20;;;10.70;60.20;;;;;;5052876;28;20021;-73
2020/12/22 09:49:15;;;;;;;16.42;8.70;;;10.70;60.00;;;;;;5053616;28;20013;-73
2020/12/22 09:51:41;;;;;;;20.50;10.10;;;10.70;60.10;;;;;;5053246;28;20100;-73
2020/12/22 09:54:07;;;;;;;19.55;10.43;;;10.70;60.20;;;;;;5055715;28;20052;-73
2020/12/22 09:56:33;;;;;;;21.40;10.30;;;10.70;60.60;;;;;;5056859;28;20328;-73
2020/12/22 09:58:59;;;;;;;16.17;9.13;;;10.70;60.70;;;;;;5056673;28;20478;-73
2020/12/22 10:01:25;;;;;;;16.10;8.77;;;10.70;60.60;;;;;;5056639;28;20025;-73
2020/12/22 10:03:52;;;;;;;20.80;10.25;;;10.80;60.50;;;;;;5055226;28;20227;-73
2020/12/22 10:06:19;;;;;;;17.75;9.05;;;10.80;60.50;;;;;;5056449;28;20024;-73
2020/12/22 10:08:45;;;;;;;16.98;9.10;;;10.80;60.40;;;;;;5056481;28;20017;-73
2020/12/22 10:11:11;;;;;;;17.48;8.77;;;10.80;60.40;;;;;;5056475;28;20521;-73
2020/12/22 10:13:37;;;;;;;14.38;7.60;;;10.90;60.40;;;;;;5056424;28;20505;-73
2020/12/22 10:16:08;;;;;;;15.55;9.07;;;10.90;60.50;;;;;;5056444;28;20099;-73
2020/12/22 10:18:34;;;;;;;21.70;10.52;;;11.00;60.60;;;;;;5055104;28;20032;-73
2020/12/22 10:21:05;;;;;;;19.77;9.27;;;11.00;60.50;;;;;;5054915;28;20097;-73
2020/12/22 10:23:31;;;;;;;20.08;9.77;;;11.10;60.50;;;;;;5056543;28;20032;-73
2020/12/22 10:25:57;;;;;;;17.25;9.77;;;11.10;60.40;;;;;;5054786;28;20045;-73
2020/12/22 10:28:23;;;;;;;26.02;12.25;;;11.20;60.40;;;;;;5056172;28;20465;-73
2020/12/22 10:30:49;;;;;;;25.80;13.05;;;11.20;60.20;;;;;;5056326;28;20057;-73
2020/12/22 10:33:15;;;;;;;22.35;12.52;;;11.20;59.80;;;;;;5054855;28;20029;-73
2020/12/22 10:35:41;;;;;;;19.65;10.98;;;11.20;59.70;;;;;;5055781;28;20421;-73
2020/12/22 10:38:06;;;;;;;26.13;12.02;;;11.20;59.80;;;;;;5056310;28;20100;-73
2020/12/22 10:40:32;;;;;;;32.65;14.88;;;11.30;59.70;;;;;;5056337;28;20465;-73
2020/12/22 10:42:58;;;;;;;32.95;15.43;;;11.30;59.60;;;;;;5056318;28;20029;-73
2020/12/22 10:45:24;;;;;;;32.60;15.55;;;11.20;59.40;;;;;;5056134;28;20021;-73
2020/12/22 10:47:50;;;;;;;30.40;14.05;;;11.20;59.40;;;;;;5055774;28;20021;-73
2020/12/22 10:50:15;;;;;;;26.83;14.13;;;11.20;59.50;;;;;;5055935;28;20032;-73
2020/12/22 10:52:41;;;;;;;24.83;12.65;;;11.20;59.40;;;;;;5055630;28;20025;-73
2020/12/22 10:55:07;;;;;;;22.17;11.70;;;11.20;59.50;;;;;;5055631;28;20104;-73
2020/12/22 10:57:33;;;;;;;23.70;10.65;;;11.20;59.40;;;;;;5055623;28;20327;-73
2020/12/22 10:59:58;;;;;;;20.02;10.15;;;11.30;59.60;;;;;;5054246;28;20037;-73
2020/12/22 11:02:24;;;;;;;20.83;10.60;;;11.30;59.70;;;;;;5054136;28;20029;-73
2020/12/22 11:04:53;;;;;;;25.45;10.98;;;11.40;59.90;;;;;;5055672;28;20017;-73
2020/12/22 11:07:25;;;;;;;22.73;11.50;;;11.40;60.00;;;;;;5055362;28;20104;-73
2020/12/22 11:09:53;;;;;;;23.35;11.43;;;11.50;59.90;;;;;;5055866;28;20024;-73
2020/12/22 11:12:18;;;;;;;20.42;11.18;;;11.60;59.90;;;;;;5053860;28;20052;-73
2020/12/22 11:14:44;;;;;;;19.50;9.65;;;11.70;59.80;;;;;;5055485;28;20479;-73
2020/12/22 11:17:10;;;;;;;26.80;11.98;;;11.70;59.80;;;;;;5054002;28;20029;-73
2020/12/22 11:19:36;;;;;;;25.00;12.65;;;11.80;59.80;;;;;;5053910;28;20029;-73
2020/12/22 11:22:02;;;;;;;21.25;11.77;;;11.90;59.90;;;;;;5053693;28;20055;-73
2020/12/22 11:24:28;;;;;;;25.55;12.30;;;11.90;59.80;;;;;;5054795;28;20045;-73
2020/12/22 11:26:53;;;;;;;24.88;12.43;;;11.90;59.70;;;;;;5055036;28;20032;-73
2020/12/22 11:29:19;;;;;;;24.23;12.93;;;12.00;59.60;;;;;;5055450;28;20025;-73
2020/12/22 11:31:50;;;;;;;26.80;14.38;;;12.00;59.60;;;;;;5054262;28;20055;-73
2020/12/22 11:34:17;;;;;;;23.27;11.38;;;12.00;59.20;;;;;;5054507;28;20051;-73
2020/12/22 11:36:48;;;;;;;28.58;12.98;;;12.00;59.40;;;;;;5054273;28;20029;-73
2020/12/22 11:39:14;;;;;;;30.45;14.55;;;11.90;59.30;;;;;;5053532;28;20021;-73
2020/12/22 11:41:39;;;;;;;28.23;16.35;;;11.90;59.20;;;;;;5037733;28;20033;-73
2020/12/22 11:44:05;;;;;;;24.88;13.95;;;11.80;59.20;;;;;;5033197;28;20021;-73
2020/12/22 11:46:31;;;;;;;26.38;15.00;;;11.80;59.40;;;;;;5035602;28;20036;-73
2020/12/22 11:48:57;;;;;;;21.08;12.20;;;11.70;59.50;;;;;;5069513;28;20478;-73
2020/12/22 11:51:22;;;;;;;27.20;14.27;;;11.70;59.70;;;;;;5054245;28;20098;-73
2020/12/22 11:53:48;;;;;;;25.70;12.70;;;11.70;59.70;;;;;;5052245;28;20032;-73
2020/12/22 11:56:14;;;;;;;24.05;12.32;;;11.70;59.70;;;;;;5052911;28;20496;-73
2020/12/22 11:58:39;;;;;;;21.95;12.07;;;11.70;59.80;;;;;;5054654;28;20478;-73
2020/12/22 12:01:05;;;;;;;23.58;12.80;;;11.70;59.90;;;;;;5054381;28;20098;-73
2020/12/22 12:03:31;;;;;;;22.33;11.95;;;11.70;60.00;;;;;;5054212;28;20096;-73
2020/12/22 12:05:57;;;;;;;25.75;12.98;;;11.70;60.20;;;;;;5053887;28;20099;-73
2020/12/22 12:08:22;;;;;;;28.48;13.25;;;11.80;60.40;;;;;;5052845;28;20434;-73
2020/12/22 12:10:49;;;;;;;28.50;13.10;;;11.80;60.40;;;;;;5053540;28;20052;-73
2020/12/22 12:13:14;;;;;;;26.63;13.32;;;11.80;60.20;;;;;;5054128;28;20103;-73
2020/12/22 12:15:40;;;;;;;23.92;11.85;;;11.80;60.20;;;;;;5053118;28;20056;-72
2020/12/22 12:18:06;;;;;;;23.35;12.32;;;11.80;60.30;;;;;;5052806;28;20112;-73
2020/12/22 12:20:31;;;;;;;24.60;12.20;;;11.90;60.20;;;;;;5053598;28;20025;-73
2020/12/22 12:22:57;;;;;;;23.55;11.77;;;11.90;60.10;;;;;;5053304;28;20040;-73
2020/12/22 12:25:23;;;;;;;25.90;12.27;;;11.90;60.10;;;;;;5053940;28;20045;-73
2020/12/22 12:27:49;;;;;;;25.25;12.77;;;11.90;60.10;;;;;;5053444;28;20413;-73
2020/12/22 12:30:15;;;;;;;25.17;12.85;;;11.90;60.10;;;;;;5053160;28;20092;-73
2020/12/22 12:32:41;;;;;;;23.02;12.20;;;11.90;59.80;;;;;;5053442;28;20040;-72
2020/12/22 12:35:07;;;;;;;24.42;12.25;;;11.90;59.80;;;;;;5053593;28;20029;-72
2020/12/22 12:37:33;;;;;;;23.38;12.45;;;11.90;59.70;;;;;;5051345;28;20052;-72
2020/12/22 12:39:58;;;;;;;24.02;12.70;;;11.90;59.70;;;;;;5052117;28;20390;-72
2020/12/22 12:42:28;;;;;;;30.55;13.18;;;11.80;59.60;;;;;;5053468;28;20093;-72